Time;durP1;ratioP1;P1;durP2;ratioP2;P2;SDS_P1;SDS_P2;PMS_P1;PMS_P2;Temp;Humidity;BMP_temperature;BMP_pressure;BME280_temperature;BME280_humidity;BME280_pressure;Samples;Min_cycle;Max_cycle;Signal;HPM_P1;HPM_P2
2023/10/16 00:03:22;;;;;;;;;;;;;;;;;;4936474;29;20372;-77
2023/10/16 00:05:51;;;;;;;;;;;;;;;;;;4936664;29;19922;-77
2023/10/16 00:08:17;;;;;;;;;;;;;;;;;;4944904;28;19977;-78
2023/10/16 00:10:43;;;;;;;;;;;;;;;;;;4956617;28;19968;-77
2023/10/16 00:13:12;;;;;;;;;;;;;;;;;;4956688;28;20376;-76
2023/10/16 00:15:49;;;;;;;;;;;;;;;;;;4956664;28;20384;-77
2023/10/16 00:18:18;;;;;;;;;;;;;;;;;;4956138;28;19926;-78
2023/10/16 00:20:44;;;;;;;;;;;;;;;;;;4956891;28;19922;-78
2023/10/16 00:23:13;;;;;;;;;;;;;;;;;;4955199;28;19933;-78
2023/10/16 00:25:39;;;;;;;;;;;;;;;;;;4956106;28;19929;-77
2023/10/16 00:28:05;;;;;;;;;;;;;;;;;;4956182;28;19922;-77
2023/10/16 00:30:31;;;;;;;;;;;;;;;;;;4956752;28;20004;-77
2023/10/16 00:32:58;;;;;;;;;;;;;;;;;;4956573;28;19922;-80
2023/10/16 00:35:24;;;;;;;;;;;;;;;;;;4956580;28;19980;-77
2023/10/16 00:37:50;;;;;;;;;;;;;;;;;;4956051;28;19972;-77
2023/10/16 00:40:29;;;;;;;;;;;;;;;;;;4936955;29;19922;-77
2023/10/16 00:42:55;;;;;;;;;;;;;;;;;;4934255;29;19930;-78
2023/10/16 00:45:21;;;;;;;;;;;;;;;;;;4933954;29;20357;-77
2023/10/16 00:47:47;;;;;;;;;;;;;;;;;;4933860;29;20250;-77
2023/10/16 00:50:14;;;;;;;;;;;;;;;;;;4933574;29;20280;-77
2023/10/16 00:52:42;;;;;;;;;;;;;;;;;;4933375;29;20387;-77
2023/10/16 00:55:11;;;;;;;;;;;;;;;;;;4932633;29;20379;-78
2023/10/16 00:57:36;;;;;;;;;;;;;;;;;;4934131;29;19922;-77
2023/10/16 01:00:12;;;;;;;;;;;;;;;;;;4933538;29;19923;-78
2023/10/16 01:02:40;;;;;;;;;;;;;;;;;;4933636;29;20291;-78
2023/10/16 01:05:07;;;;;;;;;;;;;;;;;;4933371;29;19973;-77
2023/10/16 01:07:33;;;;;;;;;;;;;;;;;;4933331;29;19926;-78
2023/10/16 01:09:59;;;;;;;;;;;;;;;;;;4933198;29;19977;-78
2023/10/16 01:12:25;;;;;;;;;;;;;;;;;;4933356;29;19988;-78
2023/10/16 01:14:51;;;;;;;;;;;;;;;;;;4933981;29;20400;-77
2023/10/16 01:17:29;;;;;;;;;;;;;;;;;;4933288;29;19982;-78
2023/10/16 01:19:56;;;;;;;;;;;;;;;;;;4933800;29;19957;-78
2023/10/16 01:22:22;;;;;;;;;;;;;;;;;;4932788;29;20014;-77
2023/10/16 01:24:48;;;;;;;;;;;;;;;;;;4933061;29;19983;-77
2023/10/16 01:27:26;;;;;;;;;;;;;;;;;;4934039;29;19968;-77
2023/10/16 01:29:59;;;;;;;;;;;;;;;;;;4937166;29;19977;-77
2023/10/16 01:32:25;;;;;;;;;;;;;;;;;;4936870;29;19922;-77
2023/10/16 01:34:52;;;;;;;;;;;;;;;;;;4937591;29;20021;-77
2023/10/16 01:37:18;;;;;;;;;;;;;;;;;;4936264;29;20328;-78
2023/10/16 01:39:53;;;;;;;;;;;;;;;;;;4935970;29;20017;-78
2023/10/16 01:42:19;;;;;;;;;;;;;;;;;;4936910;29;20014;-78
2023/10/16 01:44:45;;;;;;;;;;;;;;;;;;4937326;29;19978;-78
2023/10/16 01:47:17;;;;;;;;;;;;;;;;;;4936574;29;19923;-78
2023/10/16 01:49:43;;;;;;;;;;;;;;;;;;4936847;29;19923;-79
2023/10/16 01:52:12;;;;;;;;;;;;;;;;;;4935925;29;20254;-77
2023/10/16 01:54:38;;;;;;;;;;;;;;;;;;4936620;29;19929;-79
2023/10/16 01:57:10;;;;;;;;;;;;;;;;;;4937035;29;20305;-77
2023/10/16 01:59:36;;;;;;;;;;;;;;;;;;4937250;29;19930;-78
2023/10/16 02:02:02;;;;;;;;;;;;;;;;;;4936813;29;19927;-77
2023/10/16 02:04:28;;;;;;;;;;;;;;;;;;4936395;29;19950;-78
2023/10/16 02:06:54;;;;;;;;;;;;;;;;;;4936393;29;19922;-78
2023/10/16 02:09:23;;;;;;;;;;;;;;;;;;4935816;29;19929;-78
2023/10/16 02:11:49;;;;;;;;;;;;;;;;;;4936479;29;19923;-78
2023/10/16 02:14:15;;;;;;;;;;;;;;;;;;4936463;29;19930;-77
2023/10/16 02:16:41;;;;;;;;;;;;;;;;;;4936517;29;19923;-77
2023/10/16 02:19:07;;;;;;;;;;;;;;;;;;4936819;29;19929;-79
2023/10/16 02:21:34;;;;;;;;;;;;;;;;;;4935807;29;19933;-77
2023/10/16 02:24:03;;;;;;;;;;;;;;;;;;4936357;29;19951;-78
2023/10/16 02:26:30;;;;;;;;;;;;;;;;;;4935671;29;19918;-78
2023/10/16 02:29:00;;;;;;;;;;;;;;;;;;4936389;29;20463;-77
2023/10/16 02:31:26;;;;;;;;;;;;;;;;;;4935725;29;19929;-78
2023/10/16 02:33:56;;;;;;;;;;;;;;;;;;4936281;29;19927;-77
2023/10/16 02:36:21;;;;;;;;;;;;;;;;;;4935552;29;20443;-77
2023/10/16 02:38:47;;;;;;;;;;;;;;;;;;4940402;28;19930;-78
2023/10/16 02:41:14;;;;;;;;;;;;;;;;;;4957616;28;19923;-78
2023/10/16 02:43:45;;;;;;;;;;;;;;;;;;4958739;28;19965;-77
2023/10/16 02:46:11;;;;;;;;;;;;;;;;;;4958348;28;19922;-81
2023/10/16 02:48:37;;;;;;;;;;;;;;;;;;4958221;28;19922;-77
2023/10/16 02:51:06;;;;;;;;;;;;;;;;;;4958469;28;20366;-78
2023/10/16 02:53:34;;;;;;;;;;;;;;;;;;4957018;28;20021;-77
2023/10/16 02:56:05;;;;;;;;;;;;;;;;;;4958047;28;19922;-78
2023/10/16 02:58:31;;;;;;;;;;;;;;;;;;4957921;28;19921;-78
2023/10/16 03:00:57;;;;;;;;;;;;;;;;;;4958403;28;19922;-77
2023/10/16 03:03:24;;;;;;;;;;;;;;;;;;4957299;28;20375;-77
2023/10/16 03:05:50;;;;;;;;;;;;;;;;;;4958373;28;19995;-78
2023/10/16 03:08:19;;;;;;;;;;;;;;;;;;4956357;28;19931;-78
2023/10/16 03:10:45;;;;;;;;;;;;;;;;;;4957907;28;19922;-78
2023/10/16 03:13:13;;;;;;;;;;;;;;;;;;4958043;28;19937;-80
2023/10/16 03:15:46;;;;;;;;;;;;;;;;;;4958192;28;19921;-77
2023/10/16 03:18:16;;;;;;;;;;;;;;;;;;4957559;28;19926;-77
2023/10/16 03:20:43;;;;;;;;;;;;;;;;;;4957786;28;19981;-77
2023/10/16 03:23:12;;;;;;;;;;;;;;;;;;4956907;28;19925;-78
2023/10/16 03:28:07;;;;;;;;;;;;;;;;;;4957658;28;19922;-77
2023/10/16 03:30:33;;;;;;;;;;;;;;;;;;4957452;28;20376;-78
2023/10/16 03:32:59;;;;;;;;;;;;;;;;;;4957722;28;20335;-78
2023/10/16 03:35:31;;;;;;;;;;;;;;;;;;4957362;28;19945;-77
2023/10/16 03:37:57;;;;;;;;;;;;;;;;;;4957238;28;19926;-78
2023/10/16 03:40:24;;;;;;;;;;;;;;;;;;4955673;28;19922;-78
2023/10/16 03:42:50;;;;;;;;;;;;;;;;;;4957455;28;19929;-77
2023/10/16 03:45:20;;;;;;;;;;;;;;;;;;4957095;28;19922;-80
2023/10/16 03:47:46;;;;;;;;;;;;;;;;;;4957090;28;19926;-78
2023/10/16 03:50:13;;;;;;;;;;;;;;;;;;4957254;28;19930;-78
2023/10/16 03:52:39;;;;;;;;;;;;;;;;;;4955676;28;19929;-78
2023/10/16 03:55:24;;;;;;;;;;;;;;;;;;4956399;28;20276;-78
2023/10/16 03:57:50;;;;;;;;;;;;;;;;;;4957229;28;19922;-78
2023/10/16 04:00:18;;;;;;;;;;;;;;;;;;4956824;28;19966;-81
2023/10/16 04:02:44;;;;;;;;;;;;;;;;;;4957126;28;19928;-78
2023/10/16 04:07:55;;;;;;;;;;;;;;;;;;4956171;28;20400;-78
2023/10/16 04:10:30;;;;;;;;;;;;;;;;;;4955754;28;19926;-78
2023/10/16 04:12:57;;;;;;;;;;;;;;;;;;4957115;28;20356;-78
2023/10/16 04:15:37;;;;;;;;;;;;;;;;;;4956540;28;20030;-78
2023/10/16 04:18:04;;;;;;;;;;;;;;;;;;4956926;28;19968;-78
2023/10/16 04:20:43;;;;;;;;;;;;;;;;;;4956398;28;19921;-78
2023/10/16 04:23:29;;;;;;;;;;;;;;;;;;4955909;28;19928;-79
2023/10/16 04:29:20;;;;;;;;;;;;;;;;;;4956054;28;19925;-78
2023/10/16 04:31:44;;;;;;;;;;;;;;;;;;4955776;28;19984;-78
2023/10/16 04:36:54;;;;;;;;;;;;;;;;;;4955935;28;19925;-77
2023/10/16 04:44:49;;;;;;;;;;;;;;;;;;4956648;28;19922;-78
2023/10/16 04:47:19;;;;;;;;;;;;;;;;;;4956598;28;20370;-77
2023/10/16 04:49:59;;;;;;;;;;;;;;;;;;4971941;28;19928;-78
2023/10/16 04:55:22;;;;;;;;;;;;;;;;;;4955638;28;19977;-78
2023/10/16 04:57:48;;;;;;;;;;;;;;;;;;4956628;28;19922;-77
2023/10/16 05:03:23;;;;;;;;;;;;;;;;;;4949400;28;19922;-77
2023/10/16 05:06:49;;;;;;;;;;;;;;;;;;4962801;28;20376;-77
2023/10/16 05:19:45;;;;;;;;;;;;;;;;;;4950599;28;19922;-77
2023/10/16 06:14:21;;;;;;;;;;;;;;;;;;4959515;28;19980;-78
2023/10/16 06:16:47;;;;;;;;;;;;;;;;;;4958479;28;19977;-78
2023/10/16 06:19:19;;;;;;;;;;;;;;;;;;4959084;28;20004;-77
2023/10/16 06:21:48;;;;;;;;;;;;;;;;;;4957849;28;19925;-79
2023/10/16 06:24:25;;;;;;;;;;;;;;;;;;4958623;28;20016;-78
2023/10/16 06:26:51;;;;;;;;;;;;;;;;;;4958238;28;19918;-77
2023/10/16 06:29:17;;;;;;;;;;;;;;;;;;4958808;28;19922;-77
2023/10/16 06:31:49;;;;;;;;;;;;;;;;;;4958213;28;19973;-78
2023/10/16 06:34:15;;;;;;;;;;;;;;;;;;4958807;28;19980;-78
2023/10/16 06:36:44;;;;;;;;;;;;;;;;;;4957627;28;20361;-79
2023/10/16 06:39:22;;;;;;;;;;;;;;;;;;4949143;29;19982;-78
2023/10/16 06:41:53;;;;;;;;;;;;;;;;;;4935200;29;20365;-77
2023/10/16 06:44:21;;;;;;;;;;;;;;;;;;4936500;29;19965;-78
2023/10/16 06:46:47;;;;;;;;;;;;;;;;;;4935679;29;19926;-78
2023/10/16 06:49:13;;;;;;;;;;;;;;;;;;4935977;29;20357;-78
2023/10/16 06:51:43;;;;;;;;;;;;;;;;;;4934572;29;19926;-78
2023/10/16 06:54:09;;;;;;;;;;;;;;;;;;4935538;29;20277;-78
2023/10/16 06:56:38;;;;;;;;;;;;;;;;;;4935228;29;19923;-81
2023/10/16 06:59:04;;;;;;;;;;;;;;;;;;4936248;29;19978;-78
2023/10/16 07:01:34;;;;;;;;;;;;;;;;;;4935916;29;20146;-77
2023/10/16 07:04:00;;;;;;;;;;;;;;;;;;4935892;29;19922;-77
2023/10/16 07:06:32;;;;;;;;;;;;;;;;;;4935350;29;19930;-78
2023/10/16 07:09:00;;;;;;;;;;;;;;;;;;4934494;29;19946;-78
2023/10/16 07:11:26;;;;;;;;;;;;;;;;;;4935584;29;20338;-77
2023/10/16 07:13:52;;;;;;;;;;;;;;;;;;4935317;29;20033;-78
2023/10/16 07:16:20;;;;;;;;;;;;;;;;;;4935499;29;20357;-78
2023/10/16 07:18:50;;;;;;;;;;;;;;;;;;4934704;29;19923;-80
2023/10/16 07:21:20;;;;;;;;;;;;;;;;;;4935098;29;19946;-78
2023/10/16 07:23:46;;;;;;;;;;;;;;;;;;4934610;29;19923;-78
2023/10/16 07:26:18;;;;;;;;;;;;;;;;;;4934930;29;20488;-78
2023/10/16 07:28:51;;;;;;;;;;;;;;;;;;4934783;29;19923;-78
2023/10/16 07:31:17;;;;;;;;;;;;;;;;;;4935665;29;20373;-78
2023/10/16 07:33:43;;;;;;;;;;;;;;;;;;4934812;29;19965;-78
2023/10/16 07:36:12;;;;;;;;;;;;;;;;;;4935399;29;20017;-78
2023/10/16 07:38:38;;;;;;;;;;;;;;;;;;4936890;28;19922;-81
2023/10/16 07:41:04;;;;;;;;;;;;;;;;;;4956981;28;19922;-78
2023/10/16 07:43:32;;;;;;;;;;;;;;;;;;4957850;28;19926;-78
2023/10/16 07:48:37;;;;;;;;;;;;;;;;;;4956754;28;19929;-78
2023/10/16 07:51:06;;;;;;;;;;;;;;;;;;4956651;28;20347;-79
2023/10/16 07:53:34;;;;;;;;;;;;;;;;;;4956439;28;19936;-78
2023/10/16 07:56:02;;;;;;;;;;;;;;;;;;4956486;28;19930;-78
2023/10/16 07:58:33;;;;;;;;;;;;;;;;;;4957359;28;19922;-78
2023/10/16 08:03:46;;;;;;;;;;;;;;;;;;4945953;28;19922;-79
2023/10/16 08:06:16;;;;;;;;;;;;;;;;;;4956855;28;19926;-78
2023/10/16 08:08:43;;;;;;;;;;;;;;;;;;4955758;28;19984;-81
2023/10/16 08:11:18;;;;;;;;;;;;;;;;;;4956733;28;19922;-79
2023/10/16 08:13:47;;;;;;;;;;;;;;;;;;4956532;28;19929;-78
2023/10/16 08:16:17;;;;;;;;;;;;;;;;;;4956957;28;19922;-78
2023/10/16 08:18:43;;;;;;;;;;;;;;;;;;4956391;28;19921;-79
2023/10/16 08:21:10;;;;;;;;;;;;;;;;;;4956831;28;20348;-79
2023/10/16 08:23:37;;;;;;;;;;;;;;;;;;4955523;28;19922;-78
2023/10/16 08:26:28;;;;;;;;;;;;;;;;;;4955858;28;20064;-79
2023/10/16 08:28:54;;;;;;;;;;;;;;;;;;4956133;28;19949;-78
2023/10/16 08:31:23;;;;;;;;;;;;;;;;;;4956864;28;19987;-79
2023/10/16 08:33:49;;;;;;;;;;;;;;;;;;4956315;28;19929;-78
2023/10/16 08:36:18;;;;;;;;;;;;;;;;;;4956229;28;19922;-79
2023/10/16 08:38:52;;;;;;;;;;;;;;;;;;4955041;28;19929;-81
2023/10/16 08:41:18;;;;;;;;;;;;;;;;;;4955820;28;20366;-78
2023/10/16 08:43:54;;;;;;;;;;;;;;;;;;4956120;28;19922;-80
2023/10/16 08:46:30;;;;;;;;;;;;;;;;;;4956603;28;19986;-78
2023/10/16 08:48:57;;;;;;;;;;;;;;;;;;4955885;28;19988;-78
2023/10/16 08:51:23;;;;;;;;;;;;;;;;;;4956069;28;19933;-79
2023/10/16 08:53:49;;;;;;;;;;;;;;;;;;4955354;28;19922;-78
2023/10/16 08:56:17;;;;;;;;;;;;;;;;;;4956192;28;19922;-80
2023/10/16 08:58:44;;;;;;;;;;;;;;;;;;4956644;28;19929;-79
2023/10/16 09:01:12;;;;;;;;;;;;;;;;;;4955849;28;19926;-78
2023/10/16 09:03:38;;;;;;;;;;;;;;;;;;4956273;28;19944;-79
2023/10/16 09:06:04;;;;;;;;;;;;;;;;;;4955663;28;19922;-78
2023/10/16 09:08:32;;;;;;;;;;;;;;;;;;4954786;28;19985;-78
2023/10/16 09:10:58;;;;;;;;;;;;;;;;;;4955138;28;19922;-79
2023/10/16 09:13:26;;;;;;;;;;;;;;;;;;4956323;28;19922;-79
2023/10/16 09:15:53;;;;;;;;;;;;;;;;;;4955881;28;19977;-79
2023/10/16 09:18:21;;;;;;;;;;;;;;;;;;4955866;28;19922;-78
2023/10/16 09:20:49;;;;;;;;;;;;;;;;;;4956042;28;19926;-81
2023/10/16 09:23:21;;;;;;;;;;;;;;;;;;4954804;28;20390;-79
2023/10/16 09:25:47;;;;;;;;;;;;;;;;;;4955674;28;20016;-80
2023/10/16 09:28:16;;;;;;;;;;;;;;;;;;4955938;28;20013;-78
2023/10/16 09:30:42;;;;;;;;;;;;;;;;;;4956477;28;19933;-78
2023/10/16 09:33:10;;;;;;;;;;;;;;;;;;4955457;28;19922;-80
2023/10/16 09:35:45;;;;;;;;;;;;;;;;;;4956131;28;19922;-78
2023/10/16 09:38:17;;;;;;;;;;;;;;;;;;4954705;28;19926;-79
2023/10/16 09:40:44;;;;;;;;;;;;;;;;;;4955517;28;20043;-79
2023/10/16 09:43:28;;;;;;;;;;;;;;;;;;4955823;28;19948;-78
2023/10/16 09:46:48;;;;;;;;;;;;;;;;;;4955753;28;20013;-78
2023/10/16 09:49:05;;;;;;;;;;;;;;;;;;4955378;28;19933;-78
2023/10/16 09:51:35;;;;;;;;;;;;;;;;;;4959126;28;19926;-79
2023/10/16 09:54:02;;;;;;;;;;;;;;;;;;4958767;28;20072;-78
2023/10/16 09:56:29;;;;;;;;;;;;;;;;;;4959430;28;19957;-78
2023/10/16 09:58:56;;;;;;;;;;;;;;;;;;4959346;28;19922;-79
2023/10/16 10:01:29;;;;;;;;;;;;;;;;;;4959608;28;19922;-78
2023/10/16 10:03:55;;;;;;;;;;;;;;;;;;4959126;28;20005;-79
2023/10/16 10:06:21;;;;;;;;;;;;;;;;;;4959173;28;19922;-79
2023/10/16 10:09:22;;;;;;;;;;;;;;;;;;4958682;28;20319;-78
2023/10/16 10:11:39;;;;;;;;;;;;;;;;;;4958938;28;19929;-79
2023/10/16 10:14:39;;;;;;;;;;;;;;;;;;4958937;28;19922;-79
2023/10/16 10:16:57;;;;;;;;;;;;;;;;;;4957353;28;20284;-79
2023/10/16 10:19:24;;;;;;;;;;;;;;;;;;4959390;28;19922;-78
2023/10/16 10:21:53;;;;;;;;;;;;;;;;;;4958550;28;19948;-78
2023/10/16 10:24:19;;;;;;;;;;;;;;;;;;4958362;28;19922;-78
2023/10/16 10:26:45;;;;;;;;;;;;;;;;;;4958864;28;20375;-78
2023/10/16 10:29:12;;;;;;;;;;;;;;;;;;4958361;28;20352;-80
2023/10/16 10:31:38;;;;;;;;;;;;;;;;;;4959114;28;20008;-79
2023/10/16 10:34:11;;;;;;;;;;;;;;;;;;4958575;28;20027;-79
2023/10/16 10:36:39;;;;;;;;;;;;;;;;;;4958355;28;19949;-79
2023/10/16 10:39:06;;;;;;;;;;;;;;;;;;4954323;29;19923;-79
2023/10/16 10:41:32;;;;;;;;;;;;;;;;;;4955415;29;20292;-79
2023/10/16 10:44:08;;;;;;;;;;;;;;;;;;4955324;29;19930;-81
2023/10/16 10:46:34;;;;;;;;;;;;;;;;;;4955546;29;19923;-79
2023/10/16 10:49:01;;;;;;;;;;;;;;;;;;4954760;29;19922;-79
2023/10/16 10:51:29;;;;;;;;;;;;;;;;;;4954849;29;19922;-79
2023/10/16 10:53:55;;;;;;;;;;;;;;;;;;4955083;29;19977;-79
2023/10/16 10:56:21;;;;;;;;;;;;;;;;;;4954535;29;19970;-79
2023/10/16 10:58:47;;;;;;;;;;;;;;;;;;4955580;29;19945;-79
2023/10/16 11:01:18;;;;;;;;;;;;;;;;;;4970752;28;20496;-80
2023/10/16 11:03:48;;;;;;;;;;;;;;;;;;4974425;28;20426;-79
2023/10/16 11:06:15;;;;;;;;;;;;;;;;;;4973481;28;20319;-79
2023/10/16 11:08:41;;;;;;;;;;;;;;;;;;4973690;28;20009;-78
2023/10/16 11:11:08;;;;;;;;;;;;;;;;;;4973554;28;19922;-79
2023/10/16 11:13:37;;;;;;;;;;;;;;;;;;4974517;28;19921;-79
2023/10/16 11:16:07;;;;;;;;;;;;;;;;;;4974019;28;20319;-80
2023/10/16 11:18:37;;;;;;;;;;;;;;;;;;4974143;28;20284;-79
2023/10/16 11:21:06;;;;;;;;;;;;;;;;;;4973795;28;19922;-81
2023/10/16 11:23:32;;;;;;;;;;;;;;;;;;4973158;28;19929;-79
2023/10/16 11:26:05;;;;;;;;;;;;;;;;;;4973826;28;19922;-79
2023/10/16 11:28:37;;;;;;;;;;;;;;;;;;4974136;28;19922;-79
2023/10/16 11:31:10;;;;;;;;;;;;;;;;;;4974006;28;19925;-81
2023/10/16 11:33:45;;;;;;;;;;;;;;;;;;4973882;28;20483;-78
2023/10/16 11:36:13;;;;;;;;;;;;;;;;;;4973583;28;19926;-78
2023/10/16 11:38:39;;;;;;;;;;;;;;;;;;4974469;28;20352;-78
2023/10/16 11:41:11;;;;;;;;;;;;;;;;;;4976458;28;19925;-82
2023/10/16 11:43:56;;;;;;;;;;;;;;;;;;4977242;28;20322;-78
2023/10/16 11:46:28;;;;;;;;;;;;;;;;;;4976663;28;19921;-79
2023/10/16 11:48:57;;;;;;;;;;;;;;;;;;4976825;28;19951;-79
2023/10/16 11:51:23;;;;;;;;;;;;;;;;;;4975945;28;20283;-80
2023/10/16 11:53:49;;;;;;;;;;;;;;;;;;4976268;28;19922;-79
2023/10/16 11:56:18;;;;;;;;;;;;;;;;;;4975999;28;19977;-79
2023/10/16 11:58:44;;;;;;;;;;;;;;;;;;4976922;28;19921;-79
2023/10/16 12:01:11;;;;;;;;;;;;;;;;;;4976364;28;20330;-79
2023/10/16 12:03:37;;;;;;;;;;;;;;;;;;4976683;28;19980;-79
2023/10/16 12:06:07;;;;;;;;;;;;;;;;;;4976729;28;19923;-79
2023/10/16 12:08:33;;;;;;;;;;;;;;;;;;4975178;28;19983;-79
2023/10/16 12:11:01;;;;;;;;;;;;;;;;;;4976223;28;19922;-79
2023/10/16 12:13:30;;;;;;;;;;;;;;;;;;4975348;28;20007;-79
2023/10/16 12:15:57;;;;;;;;;;;;;;;;;;4976757;28;19922;-79
2023/10/16 12:18:26;;;;;;;;;;;;;;;;;;4975832;28;19921;-79
2023/10/16 12:20:52;;;;;;;;;;;;;;;;;;4976479;28;19972;-79
2023/10/16 12:23:20;;;;;;;;;;;;;;;;;;4974756;28;20310;-79
2023/10/16 12:25:46;;;;;;;;;;;;;;;;;;4975957;28;19922;-79
2023/10/16 12:28:12;;;;;;;;;;;;;;;;;;4975859;28;19985;-80
2023/10/16 12:30:38;;;;;;;;;;;;;;;;;;4976428;28;19984;-80
2023/10/16 12:33:07;;;;;;;;;;;;;;;;;;4976142;28;19929;-79
2023/10/16 12:35:34;;;;;;;;;;;;;;;;;;4975626;28;19930;-79
2023/10/16 12:38:04;;;;;;;;;;;;;;;;;;4975693;28;20322;-79
2023/10/16 12:40:39;;;;;;;;;;;;;;;;;;4974475;28;20052;-79
2023/10/16 12:43:09;;;;;;;;;;;;;;;;;;4976182;28;19944;-79
2023/10/16 12:45:37;;;;;;;;;;;;;;;;;;4975680;28;20353;-79
2023/10/16 12:48:04;;;;;;;;;;;;;;;;;;4975551;28;20371;-79
2023/10/16 12:50:30;;;;;;;;;;;;;;;;;;4975473;28;20271;-79
2023/10/16 12:52:56;;;;;;;;;;;;;;;;;;4975379;28;19976;-79
2023/10/16 12:55:23;;;;;;;;;;;;;;;;;;4974476;28;20395;-79
2023/10/16 12:57:49;;;;;;;;;;;;;;;;;;4976033;28;19921;-79
2023/10/16 13:00:16;;;;;;;;;;;;;;;;;;4975469;28;19922;-79
2023/10/16 13:02:42;;;;;;;;;;;;;;;;;;4975811;28;19941;-79
2023/10/16 13:05:13;;;;;;;;;;;;;;;;;;4975811;28;19967;-80
2023/10/16 13:07:41;;;;;;;;;;;;;;;;;;4974895;28;19922;-79
2023/10/16 13:10:08;;;;;;;;;;;;;;;;;;4974689;28;19997;-79
2023/10/16 13:12:36;;;;;;;;;;;;;;;;;;4975331;28;19968;-79
2023/10/16 13:15:02;;;;;;;;;;;;;;;;;;4975877;28;19932;-79
2023/10/16 13:17:29;;;;;;;;;;;;;;;;;;4975164;28;20004;-79
2023/10/16 13:19:55;;;;;;;;;;;;;;;;;;4975626;28;19922;-80
2023/10/16 13:22:22;;;;;;;;;;;;;;;;;;4974638;28;19921;-79
2023/10/16 13:24:48;;;;;;;;;;;;;;;;;;4978018;28;19928;-80
2023/10/16 13:27:16;;;;;;;;;;;;;;;;;;4979531;28;20349;-80
2023/10/16 13:29:43;;;;;;;;;;;;;;;;;;4979390;28;19981;-79
2023/10/16 13:32:09;;;;;;;;;;;;;;;;;;4979430;28;19929;-79
2023/10/16 13:34:36;;;;;;;;;;;;;;;;;;4978988;28;20496;-79
2023/10/16 13:37:08;;;;;;;;;;;;;;;;;;4978930;28;20321;-79
2023/10/16 13:39:38;;;;;;;;;;;;;;;;;;4978109;28;19928;-79
2023/10/16 13:42:08;;;;;;;;;;;;;;;;;;4979128;28;20024;-79
2023/10/16 13:44:35;;;;;;;;;;;;;;;;;;4978850;28;20016;-79
2023/10/16 13:47:04;;;;;;;;;;;;;;;;;;4979096;28;19968;-79
2023/10/16 13:49:30;;;;;;;;;;;;;;;;;;4978390;28;19922;-79
2023/10/16 13:51:57;;;;;;;;;;;;;;;;;;4978360;28;19928;-79
2023/10/16 13:54:24;;;;;;;;;;;;;;;;;;4978108;28;19972;-79
2023/10/16 13:56:51;;;;;;;;;;;;;;;;;;4978739;28;19928;-79
2023/10/16 13:59:20;;;;;;;;;;;;;;;;;;4978980;28;20279;-83
2023/10/16 14:01:46;;;;;;;;;;;;;;;;;;4978796;28;19926;-79
2023/10/16 14:04:16;;;;;;;;;;;;;;;;;;4978966;28;19948;-79
2023/10/16 14:06:43;;;;;;;;;;;;;;;;;;4977849;28;20679;-80
2023/10/16 14:09:19;;;;;;;;;;;;;;;;;;4978274;28;19921;-79
2023/10/16 14:11:48;;;;;;;;;;;;;;;;;;4978468;28;20255;-78
2023/10/16 14:14:18;;;;;;;;;;;;;;;;;;4978851;28;20016;-78
2023/10/16 14:16:46;;;;;;;;;;;;;;;;;;4978417;28;19921;-78
2023/10/16 14:19:13;;;;;;;;;;;;;;;;;;4978733;28;19926;-78
2023/10/16 14:21:40;;;;;;;;;;;;;;;;;;4977381;28;19922;-79
2023/10/16 14:24:06;;;;;;;;;;;;;;;;;;4978212;28;19928;-79
2023/10/16 14:26:34;;;;;;;;;;;;;;;;;;4977751;28;19926;-78
2023/10/16 14:29:00;;;;;;;;;;;;;;;;;;4978389;28;20012;-78
2023/10/16 14:31:28;;;;;;;;;;;;;;;;;;4977945;28;19983;-79
2023/10/16 14:33:54;;;;;;;;;;;;;;;;;;4978469;28;19972;-78
2023/10/16 14:36:24;;;;;;;;;;;;;;;;;;4976810;28;19929;-78
2023/10/16 14:38:50;;;;;;;;;;;;;;;;;;4977612;28;19921;-78
2023/10/16 14:41:17;;;;;;;;;;;;;;;;;;4976808;28;20438;-78
2023/10/16 14:43:45;;;;;;;;;;;;;;;;;;4977831;28;19928;-78
2023/10/16 14:46:11;;;;;;;;;;;;;;;;;;4978019;28;19936;-78
2023/10/16 14:48:37;;;;;;;;;;;;;;;;;;4977351;28;19922;-78
2023/10/16 14:51:04;;;;;;;;;;;;;;;;;;4978084;28;19981;-78
2023/10/16 14:53:30;;;;;;;;;;;;;;;;;;4976399;28;19932;-78
2023/10/16 14:55:56;;;;;;;;;;;;;;;;;;4977611;28;19921;-78
2023/10/16 14:58:23;;;;;;;;;;;;;;;;;;4978047;28;19930;-79
2023/10/16 15:00:50;;;;;;;;;;;;;;;;;;4977811;28;19922;-78
2023/10/16 15:03:16;;;;;;;;;;;;;;;;;;4977728;28;19922;-79
2023/10/16 15:05:43;;;;;;;;;;;;;;;;;;4977361;28;19921;-78
2023/10/16 15:08:12;;;;;;;;;;;;;;;;;;4977194;28;20275;-80
2023/10/16 15:10:40;;;;;;;;;;;;;;;;;;4976396;28;19922;-78
2023/10/16 15:13:06;;;;;;;;;;;;;;;;;;4977722;28;19976;-79
2023/10/16 15:15:32;;;;;;;;;;;;;;;;;;4977220;28;20012;-78
2023/10/16 15:17:59;;;;;;;;;;;;;;;;;;4977245;28;19921;-79
2023/10/16 15:20:26;;;;;;;;;;;;;;;;;;4977477;28;19962;-80
2023/10/16 15:22:52;;;;;;;;;;;;;;;;;;4976470;28;19977;-78
2023/10/16 15:25:18;;;;;;;;;;;;;;;;;;4976519;28;19976;-78
2023/10/16 15:27:46;;;;;;;;;;;;;;;;;;4976971;28;19929;-78
2023/10/16 15:30:12;;;;;;;;;;;;;;;;;;4977167;28;19922;-78
2023/10/16 15:32:39;;;;;;;;;;;;;;;;;;4976775;28;19928;-78
2023/10/16 15:35:05;;;;;;;;;;;;;;;;;;4977212;28;19975;-80
2023/10/16 15:37:32;;;;;;;;;;;;;;;;;;4976191;28;19965;-79
2023/10/16 15:39:58;;;;;;;;;;;;;;;;;;4976388;28;19996;-78
2023/10/16 15:42:24;;;;;;;;;;;;;;;;;;4976795;28;19925;-78
2023/10/16 15:44:50;;;;;;;;;;;;;;;;;;4979019;28;20273;-79
2023/10/16 15:47:16;;;;;;;;;;;;;;;;;;4976965;28;19922;-78
2023/10/16 15:49:42;;;;;;;;;;;;;;;;;;4976102;28;19929;-79
2023/10/16 15:52:09;;;;;;;;;;;;;;;;;;4975992;28;19929;-79
2023/10/16 15:54:35;;;;;;;;;;;;;;;;;;4976060;28;19980;-79
2023/10/16 15:57:01;;;;;;;;;;;;;;;;;;4976498;28;20335;-78
2023/10/16 15:59:27;;;;;;;;;;;;;;;;;;4976973;28;19926;-79
2023/10/16 16:01:53;;;;;;;;;;;;;;;;;;4976154;28;19926;-78
2023/10/16 16:04:20;;;;;;;;;;;;;;;;;;4976771;28;19921;-79
2023/10/16 16:06:46;;;;;;;;;;;;;;;;;;4975619;28;19921;-78
2023/10/16 16:09:13;;;;;;;;;;;;;;;;;;4976020;28;20081;-78
2023/10/16 16:11:44;;;;;;;;;;;;;;;;;;4975704;28;19929;-78
2023/10/16 16:14:12;;;;;;;;;;;;;;;;;;4976598;28;19926;-78
2023/10/16 16:16:38;;;;;;;;;;;;;;;;;;4975927;28;19921;-78
2023/10/16 16:19:05;;;;;;;;;;;;;;;;;;4976342;28;19922;-78
2023/10/16 16:21:34;;;;;;;;;;;;;;;;;;4975442;28;20019;-82
2023/10/16 16:24:00;;;;;;;;;;;;;;;;;;4976036;28;20327;-78
2023/10/16 16:26:26;;;;;;;;;;;;;;;;;;4976033;28;19929;-78
2023/10/16 16:28:52;;;;;;;;;;;;;;;;;;4975817;28;20485;-78
2023/10/16 16:31:20;;;;;;;;;;;;;;;;;;4972968;28;19977;-77
2023/10/16 16:33:46;;;;;;;;;;;;;;;;;;4956313;28;20355;-78
2023/10/16 16:36:13;;;;;;;;;;;;;;;;;;4956938;28;19928;-80
2023/10/16 16:38:39;;;;;;;;;;;;;;;;;;4955654;28;19922;-78
2023/10/16 16:41:05;;;;;;;;;;;;;;;;;;4956086;28;19929;-78
2023/10/16 16:43:31;;;;;;;;;;;;;;;;;;4956963;28;19922;-78
2023/10/16 16:45:57;;;;;;;;;;;;;;;;;;4956490;28;19973;-77
2023/10/16 16:48:23;;;;;;;;;;;;;;;;;;4956497;28;19933;-77
2023/10/16 16:50:49;;;;;;;;;;;;;;;;;;4956265;28;19922;-79
2023/10/16 16:53:16;;;;;;;;;;;;;;;;;;4955732;28;19984;-78
2023/10/16 16:55:42;;;;;;;;;;;;;;;;;;4955720;28;19929;-77
2023/10/16 16:58:10;;;;;;;;;;;;;;;;;;4956372;28;19922;-77
2023/10/16 17:00:37;;;;;;;;;;;;;;;;;;4956359;28;19928;-80
2023/10/16 17:03:03;;;;;;;;;;;;;;;;;;4956415;28;19926;-78
2023/10/16 17:05:29;;;;;;;;;;;;;;;;;;4969656;28;19929;-75
2023/10/16 17:07:56;;;;;;;;;;;;;;;;;;4973113;28;19925;-77
2023/10/16 17:10:28;;;;;;;;;;;;;;;;;;4969921;28;20466;-77
2023/10/16 17:12:54;;;;;;;;;;;;;;;;;;4972295;28;19921;-76
2023/10/16 17:15:20;;;;;;;;;;;;;;;;;;4966185;28;19972;-76
2023/10/16 17:17:46;;;;;;;;;;;;;;;;;;4955730;28;19922;-75
2023/10/16 17:20:12;;;;;;;;;;;;;;;;;;4956296;28;19950;-75
2023/10/16 17:22:38;;;;;;;;;;;;;;;;;;4955484;28;19929;-80
2023/10/16 17:25:05;;;;;;;;;;;;;;;;;;4955340;28;20272;-76
2023/10/16 17:27:32;;;;;;;;;;;;;;;;;;4964534;28;19922;-76
2023/10/16 17:29:58;;;;;;;;;;;;;;;;;;4974937;28;20077;-76
2023/10/16 17:32:24;;;;;;;;;;;;;;;;;;4963625;28;20322;-75
2023/10/16 17:34:50;;;;;;;;;;;;;;;;;;4971058;28;19984;-81
2023/10/16 17:37:16;;;;;;;;;;;;;;;;;;4962762;28;19922;-77
2023/10/16 17:39:47;;;;;;;;;;;;;;;;;;4972879;28;19922;-78
2023/10/16 17:42:13;;;;;;;;;;;;;;;;;;4974120;28;19971;-77
2023/10/16 17:44:39;;;;;;;;;;;;;;;;;;4974908;28;20024;-78
2023/10/16 17:47:05;;;;;;;;;;;;;;;;;;4976270;28;19928;-78
2023/10/16 17:49:31;;;;;;;;;;;;;;;;;;4983240;28;19928;-73
2023/10/16 17:51:57;;;;;;;;;;;;;;;;;;4974512;28;19968;-73
2023/10/16 17:54:30;;;;;;;;;;;;;;;;;;4976492;28;19929;-77
2023/10/16 17:56:58;;;;;;;;;;;;;;;;;;4976067;28;19974;-77
2023/10/16 17:59:24;;;;;;;;;;;;;;;;;;4965775;28;19929;-76
2023/10/16 18:01:50;;;;;;;;;;;;;;;;;;4955076;28;20371;-76
2023/10/16 18:04:17;;;;;;;;;;;;;;;;;;4973771;28;19921;-79
2023/10/16 18:06:43;;;;;;;;;;;;;;;;;;4972889;28;19973;-75
2023/10/16 18:09:09;;;;;;;;;;;;;;;;;;4975046;28;19965;-77
2023/10/16 18:11:38;;;;;;;;;;;;;;;;;;4962362;28;20016;-78
2023/10/16 18:14:04;;;;;;;;;;;;;;;;;;4968825;28;20759;-76
2023/10/16 18:16:31;;;;;;;;;;;;;;;;;;4975152;28;19921;-77
2023/10/16 18:18:57;;;;;;;;;;;;;;;;;;4992756;28;20015;-76
2023/10/16 18:21:23;;;;;;;;;;;;;;;;;;4987804;28;20012;-77
2023/10/16 18:23:49;;;;;;;;;;;;;;;;;;4989402;28;19961;-77
2023/10/16 18:26:15;;;;;;;;;;;;;;;;;;4981471;28;21232;-76